Time;durP1;ratioP1;P1;durP2;ratioP2;P2;SDS_P1;SDS_P2;PMS_P1;PMS_P2;Temp;Humidity;BMP_temperature;BMP_pressure;BME280_temperature;BME280_humidity;BME280_pressure;Samples;Min_cycle;Max_cycle;Signal;HPM_P1;HPM_P2
2023/09/30 00:00:03;;;;;;;;;4.50;3.50;;;;;18.53;61.60;102185.97;5051682;28;45372;-70
2023/09/30 00:02:29;;;;;;;;;3.25;2.50;;;;;18.45;61.00;102180.88;5052037;28;45644;-70
2023/09/30 00:04:55;;;;;;;;;4.50;3.25;;;;;18.59;61.55;102206.44;5040183;28;45501;-70
2023/09/30 00:07:21;;;;;;;;;4.25;3.50;;;;;18.44;61.30;102186.34;5038220;28;45636;-70
2023/09/30 00:09:49;;;;;;;;;4.00;3.75;;;;;18.46;61.59;102198.84;5039852;28;46756;-70
2023/09/30 00:12:14;;;;;;;;;2.75;2.75;;;;;18.26;61.73;102164.56;5039827;28;45337;-70
2023/09/30 00:14:42;;;;;;;;;2.25;1.25;;;;;18.43;61.79;102198.97;5055741;28;45377;-70
2023/09/30 00:17:07;;;;;;;;;3.00;2.75;;;;;18.52;61.69;102216.63;5059802;28;45338;-70
2023/09/30 00:19:33;;;;;;;;;5.00;2.50;;;;;18.38;61.75;102198.31;5049864;28;47096;-70
2023/09/30 00:21:59;;;;;;;;;3.50;3.50;;;;;18.39;61.82;102207.28;5043109;28;45236;-70
2023/09/30 00:24:28;;;;;;;;;2.50;2.50;;;;;18.23;62.03;102175.50;5039997;28;45506;-70
2023/09/30 00:26:53;;;;;;;;;3.50;3.00;;;;;18.43;62.46;102215.22;5055415;28;45510;-70
2023/09/30 00:29:19;;;;;;;;;4.25;2.75;;;;;18.28;62.13;102191.53;5059710;28;46485;-70
2023/09/30 00:31:44;;;;;;;;;3.25;3.25;;;;;18.20;62.03;102174.75;5058398;28;45421;-70
2023/09/30 00:34:22;;;;;;;;;;;;;;;;;;;;;
2023/09/30 00:36:48;;;;;;;;;4.50;2.75;;;;;18.36;62.36;102218.22;5038081;28;72348;-70
2023/09/30 00:39:13;;;;;;;;;2.75;2.25;;;;;18.26;62.61;102198.78;5039514;28;46313;-70
2023/09/30 00:41:39;;;;;;;;;2.75;2.25;;;;;18.42;62.97;102228.78;5054815;28;45452;-70
2023/09/30 00:44:05;;;;;;;;;3.50;3.25;;;;;18.37;62.52;102217.28;5054438;28;45381;-70
2023/09/30 00:46:32;;;;;;;;;3.25;2.50;;;;;18.15;62.32;102191.16;5054704;28;45517;-70
2023/09/30 00:48:59;;;;;;;;;4.25;2.50;;;;;18.28;62.88;102194.22;5053507;28;47299;-70
2023/09/30 00:51:26;;;;;;;;;3.25;3.25;;;;;18.25;62.86;102192.50;5042342;28;45435;-70
2023/09/30 00:53:55;;;;;;;;;6.75;2.50;;;;;18.34;62.88;102207.47;5049497;28;45594;-70
2023/09/30 00:56:24;;;;;;;;;2.00;2.00;;;;;18.24;63.11;102197.97;5056854;28;45539;-70
2023/09/30 00:58:52;;;;;;;;;3.00;2.50;;;;;18.20;63.35;102189.13;5059309;28;45675;-70
2023/09/30 01:01:20;;;;;;;;;3.00;3.00;;;;;18.14;62.68;102168.66;5053510;28;45486;-70
2023/09/30 01:03:49;;;;;;;;;4.25;3.25;;;;;18.27;63.02;102192.47;5054767;28;45542;-70
2023/09/30 01:06:14;;;;;;;;;4.50;4.50;;;;;18.09;62.94;102150.84;5062582;28;45318;-70
2023/09/30 01:08:41;;;;;;;;;3.50;3.50;;;;;18.08;63.39;102178.84;5045841;28;45328;-70
2023/09/30 01:11:07;;;;;;;;;6.25;4.25;;;;;18.25;63.36;102224.09;5039051;28;46844;-70
2023/09/30 01:13:34;;;;;;;;;3.00;3.00;;;;;18.11;63.42;102205.75;5046953;28;45433;-70
2023/09/30 01:16:09;;;;;;;;;3.25;2.50;;;;;18.05;63.42;102192.47;5054389;28;45423;-70
2023/09/30 01:18:36;;;;;;;;;5.50;4.00;;;;;18.01;63.44;102183.63;5054460;28;47016;-70
2023/09/30 01:21:06;;;;;;;;;3.75;3.75;;;;;18.05;63.38;102184.38;5039082;28;45393;-70
2023/09/30 01:23:33;;;;;;;;;6.25;4.00;;;;;18.05;63.78;102195.16;5053299;28;45395;-70
2023/09/30 01:26:06;;;;;;;;;4.00;3.00;;;;;17.96;63.72;102193.72;5050155;28;45323;-70
2023/09/30 01:28:32;;;;;;;;;3.50;2.75;;;;;17.94;64.01;102195.59;5041277;28;47694;-70
2023/09/30 01:30:58;;;;;;;;;4.00;3.00;;;;;17.94;63.74;102198.28;5049033;28;45409;-70
2023/09/30 01:33:24;;;;;;;;;3.25;3.25;;;;;18.02;64.37;102203.41;5038786;28;45294;-70
2023/09/30 01:35:49;;;;;;;;;6.75;3.75;;;;;17.90;63.86;102181.31;5038519;28;45506;-70
2023/09/30 01:38:14;;;;;;;;;3.00;2.00;;;;;18.05;64.14;102211.38;5038489;28;46316;-70
2023/09/30 01:40:40;;;;;;;;;3.00;3.00;;;;;17.79;64.23;102161.94;5038725;28;45432;-70
2023/09/30 01:43:06;;;;;;;;;5.75;2.75;;;;;18.12;64.29;102215.59;5045296;28;45556;-70
2023/09/30 01:45:31;;;;;;;;;3.00;3.00;;;;;18.09;64.10;102207.59;5056275;28;45440;-70
2023/09/30 01:47:56;;;;;;;;;4.75;3.25;;;;;18.07;64.45;102204.09;5040183;28;47304;-70
2023/09/30 01:50:24;;;;;;;;;5.00;3.25;;;;;17.74;64.25;102147.75;5038691;28;45399;-70
2023/09/30 01:52:50;;;;;;;;;4.50;3.25;;;;;17.90;63.94;102172.34;5054839;28;45276;-70
2023/09/30 01:55:15;;;;;;;;;6.00;3.25;;;;;17.88;64.52;102177.81;5053595;28;45739;-70
2023/09/30 01:57:41;;;;;;;;;4.25;4.25;;;;;17.87;64.40;102164.38;5055820;28;45705;-70
2023/09/30 02:00:09;;;;;;;;;3.75;3.00;;;;;17.96;64.36;102185.63;5049237;28;45505;-71
2023/09/30 02:02:36;;;;;;;;;4.25;3.75;;;;;17.88;63.95;102166.16;5064003;28;45453;-70
2023/09/30 02:05:02;;;;;;;;;3.75;3.25;;;;;17.97;64.01;102187.38;5060895;28;45364;-70
2023/09/30 02:07:29;;;;;;;;;5.25;2.50;;;;;17.65;64.02;102131.91;5058827;28;46418;-70
2023/09/30 02:09:57;;;;;;;;;3.75;2.00;;;;;17.65;64.41;102131.91;5057277;28;45598;-70
2023/09/30 02:12:22;;;;;;;;;2.25;2.25;;;;;17.62;64.38;102135.59;5041919;28;45340;-70
2023/09/30 02:14:48;;;;;;;;;5.00;3.00;;;;;17.73;64.48;102164.91;5059996;28;45599;-70
2023/09/30 02:17:13;;;;;;;;;7.00;3.25;;;;;17.77;64.37;102175.53;5052039;28;45664;-70
2023/09/30 02:19:40;;;;;;;;;3.50;2.75;;;;;17.92;64.79;102197.47;5061980;28;45333;-70
2023/09/30 02:22:05;;;;;;;;;3.50;2.50;;;;;17.74;64.37;102166.63;5043446;28;45648;-70
2023/09/30 02:24:31;;;;;;;;;5.00;2.75;;;;;17.83;64.43;102181.63;5040264;28;45455;-70
2023/09/30 02:26:57;;;;;;;;;4.00;2.75;;;;;17.94;64.62;102198.28;5041534;28;46535;-70
2023/09/30 02:29:22;;;;;;;;;1.75;1.75;;;;;17.93;64.64;102197.41;5051948;28;45653;-70
2023/09/30 02:31:51;;;;;;;;;3.00;3.00;;;;;17.78;64.86;102182.66;5044445;28;45466;-70
2023/09/30 02:34:16;;;;;;;;;4.25;2.00;;;;;17.70;64.62;102165.03;5041595;28;45328;-70
2023/09/30 02:36:41;;;;;;;;;3.50;2.00;;;;;17.73;64.90;102168.47;5041267;28;45453;-70
2023/09/30 02:39:14;;;;;;;;;4.00;4.00;;;;;17.89;64.69;102181.38;5047643;28;45328;-70
2023/09/30 02:41:44;;;;;;;;;5.50;3.25;;;;;17.85;64.49;102185.13;5058622;28;45468;-70
2023/09/30 02:44:10;;;;;;;;;5.00;3.00;;;;;17.78;64.83;102165.59;5061418;28;45453;-70
2023/09/30 02:46:35;;;;;;;;;3.00;2.00;;;;;17.83;64.96;102174.38;5053443;28;45665;-70
2023/09/30 02:49:02;;;;;;;;;3.00;3.00;;;;;17.62;65.35;102132.91;5041384;28;45382;-70
2023/09/30 02:51:27;;;;;;;;;4.50;3.50;;;;;17.78;64.91;102163.75;5041348;28;45465;-70
2023/09/30 02:53:53;;;;;;;;;3.25;2.50;;;;;17.64;65.07;102151.75;5051617;28;45538;-70
2023/09/30 02:56:19;;;;;;;;;1.50;1.50;;;;;17.69;65.10;102169.56;5059884;28;45459;-70
2023/09/30 02:58:46;;;;;;;;;6.00;4.50;;;;;17.86;65.32;102190.47;5061265;28;45384;-70
2023/09/30 03:01:16;;;;;;;;;3.25;3.25;;;;;17.73;65.46;102176.56;5042767;28;45441;-70
2023/09/30 03:03:44;;;;;;;;;4.25;4.25;;;;;17.71;65.02;102186.56;5055722;28;45411;-70
2023/09/30 03:06:12;;;;;;;;;6.75;3.25;;;;;17.65;65.46;102183.22;5059661;28;47037;-70
2023/09/30 03:08:37;;;;;;;;;4.00;4.00;;;;;17.54;65.32;102173.72;5056438;28;45316;-70
2023/09/30 03:11:04;;;;;;;;;6.25;5.25;;;;;17.80;65.39;102215.03;5054129;28;45367;-70
2023/09/30 03:13:30;;;;;;;;;6.75;4.00;;;;;17.64;65.87;102189.56;5051464;28;45508;-70
2023/09/30 03:16:00;;;;;;;;;4.00;4.00;;;;;17.60;66.10;102183.41;5041000;28;46422;-70
2023/09/30 03:18:26;;;;;;;;;4.25;3.00;;;;;17.80;65.66;102222.25;5058176;28;45496;-70
2023/09/30 03:21:01;;;;;;;;;4.00;4.00;;;;;17.63;66.23;102190.50;5053444;28;45531;-70
2023/09/30 03:23:30;;;;;;;;;4.00;4.00;;;;;17.62;65.97;102194.13;5040641;28;45465;-70
2023/09/30 03:25:59;;;;;;;;;4.00;3.25;;;;;17.40;65.58;102160.75;5040676;28;45574;-70
2023/09/30 03:28:28;;;;;;;;;3.25;3.25;;;;;17.62;66.04;102204.94;5059056;28;45347;-70
2023/09/30 03:30:53;;;;;;;;;4.00;4.00;;;;;17.72;66.17;102227.94;5061075;28;45362;-70
2023/09/30 03:33:21;;;;;;;;;4.00;3.50;;;;;17.50;66.04;102187.41;5059233;28;45512;-70
2023/09/30 03:35:49;;;;;;;;;3.75;3.75;;;;;17.74;66.16;102235.06;5049951;28;45560;-70
2023/09/30 03:38:16;;;;;;;;;4.50;4.00;;;;;17.53;66.15;102207.06;5053435;28;45367;-70
2023/09/30 03:40:47;;;;;;;;;3.75;3.00;;;;;17.55;66.12;102212.41;5051957;28;45504;-70
2023/09/30 03:43:16;;;;;;;;;5.75;4.25;;;;;17.66;66.02;102237.19;5049565;28;45385;-70
2023/09/30 03:45:41;;;;;;;;;5.00;4.75;;;;;17.52;66.39;102216.09;5057286;28;45619;-70
2023/09/30 03:48:09;;;;;;;;;4.50;3.25;;;;;17.47;66.55;102209.09;5056930;28;45335;-70
2023/09/30 03:50:35;;;;;;;;;3.25;3.00;;;;;17.72;66.70;102239.63;5040535;28;45471;-70
2023/09/30 03:53:04;;;;;;;;;4.25;3.00;;;;;17.46;66.68;102186.63;5043343;28;45469;-70
2023/09/30 03:55:35;;;;;;;;;5.25;5.00;;;;;17.35;66.23;102178.94;5075482;28;45658;-70
2023/09/30 03:58:03;;;;;;;;;7.00;4.25;;;;;17.47;66.44;102203.72;5057657;28;45597;-70
2023/09/30 04:00:29;;;;;;;;;5.00;4.00;;;;;17.44;66.51;102198.41;5060518;28;45365;-70
2023/09/30 04:02:58;;;;;;;;;6.75;5.50;;;;;17.49;66.67;102200.03;5050057;28;45387;-70
2023/09/30 04:05:28;;;;;;;;;6.75;5.00;;;;;17.41;66.72;102186.81;5046974;28;45587;-70
2023/09/30 04:07:57;;;;;;;;;10.00;6.25;;;;;17.34;66.94;102179.00;5058444;28;45561;-70
2023/09/30 04:10:25;;;;;;;;;8.25;7.50;;;;;17.38;66.28;102184.22;5045943;28;45255;-70
2023/09/30 04:12:52;;;;;;;;;7.50;7.00;;;;;17.28;66.70;102165.75;5057652;28;45504;-70
2023/09/30 04:15:18;;;;;;;;;12.00;7.00;;;;;17.55;66.38;102198.91;5058156;28;46391;-70
2023/09/30 04:17:44;;;;;;;;;9.75;7.00;;;;;17.31;66.89;102158.41;5051061;28;45471;-70
2023/09/30 04:20:11;;;;;;;;;9.75;9.50;;;;;17.26;67.02;102136.13;5043479;28;45658;-70
2023/09/30 04:22:38;;;;;;;;;6.75;6.75;;;;;17.34;66.60;102152.00;5044192;28;45562;-70
2023/09/30 04:25:10;;;;;;;;;7.75;7.00;;;;;17.44;66.77;102166.03;5052577;28;45677;-70
2023/09/30 04:27:36;;;;;;;;;0.25;0.00;;;;;17.39;66.97;102147.31;5040029;28;45574;-70
2023/09/30 04:30:08;;;;;;;;;6.00;5.00;;;;;17.47;66.86;102164.09;5054998;28;45347;-70
2023/09/30 04:32:36;;;;;;;;;11.75;7.00;;;;;17.25;67.00;102133.47;5058182;28;45596;-70
2023/09/30 04:35:02;;;;;;;;;9.75;7.50;;;;;17.30;67.46;102131.47;5061443;28;47574;-70
2023/09/30 04:37:31;;;;;;;;;6.75;4.50;;;;;17.32;67.36;102133.16;5059789;28;45609;-70
2023/09/30 04:39:58;;;;;;;;;6.75;5.00;;;;;17.14;67.32;102102.41;5041119;28;45496;-70
2023/09/30 04:42:25;;;;;;;;;8.75;4.50;;;;;17.26;66.79;102132.53;5040491;28;45418;-70
2023/09/30 04:44:59;;;;;;;;;4.00;4.00;;;;;17.17;66.89;102121.19;5054416;28;47546;-70
2023/09/30 04:47:25;;;;;;;;;7.00;4.50;;;;;17.31;67.38;102153.03;5045798;28;45324;-70
2023/09/30 04:49:51;;;;;;;;;7.25;6.75;;;;;17.34;66.88;102169.09;5039739;28;45305;-70
2023/09/30 04:52:16;;;;;;;;;3.50;3.50;;;;;17.29;67.16;102176.50;5039449;28;46135;-70
2023/09/30 04:54:42;;;;;;;;;7.00;5.00;;;;;17.35;67.39;102178.94;5056078;28;45293;-70
2023/09/30 04:57:08;;;;;;;;;6.25;4.50;;;;;17.30;67.23;102170.13;5056807;28;45243;-70
2023/09/30 04:59:34;;;;;;;;;3.25;3.00;;;;;17.34;67.38;102189.78;5059679;28;45598;-70
2023/09/30 05:02:00;;;;;;;;;8.00;5.75;;;;;17.38;67.44;102200.41;5057554;28;45435;-70
2023/09/30 05:04:25;;;;;;;;;5.50;5.25;;;;;17.15;67.02;102162.63;5038969;28;46512;-70
2023/09/30 05:06:51;;;;;;;;;5.25;4.25;;;;;17.30;67.36;102175.53;5039243;28;45419;-70
2023/09/30 05:09:19;;;;;;;;;5.50;5.50;;;;;17.30;66.96;102175.53;5038932;28;45406;-70
2023/09/30 05:11:44;;;;;;;;;4.00;4.00;;;;;17.24;67.30;102156.91;5039362;28;45419;-70
2023/09/30 05:14:10;;;;;;;;;5.00;5.00;;;;;17.33;67.51;102179.94;5052362;28;46791;-70
2023/09/30 05:16:36;;;;;;;;;7.75;6.00;;;;;17.41;67.30;102191.34;5050956;28;45434;-70
2023/09/30 05:19:02;;;;;;;;;6.00;6.00;;;;;17.20;67.32;102149.84;5059112;28;45449;-70
2023/09/30 05:21:28;;;;;;;;;6.25;6.25;;;;;17.18;67.17;102160.69;5047120;28;45567;-70
2023/09/30 05:23:55;;;;;;;;;7.00;6.25;;;;;17.30;67.02;102177.38;5038644;28;46548;-70
2023/09/30 05:26:21;;;;;;;;;6.50;6.00;;;;;17.33;67.36;102188.91;5037182;28;45728;-70
2023/09/30 05:28:47;;;;;;;;;8.75;6.00;;;;;17.10;67.32;102159.22;5044874;28;45400;-70
2023/09/30 05:31:14;;;;;;;;;6.50;5.75;;;;;17.03;67.74;102158.56;5046595;28;45817;-70
2023/09/30 05:33:40;;;;;;;;;7.75;7.75;;;;;17.26;67.27;102206.28;5038567;28;45459;-70
2023/09/30 05:36:05;;;;;;;;;8.00;7.75;;;;;17.02;67.61;102179.28;5038060;28;45375;-71
2023/09/30 05:38:31;;;;;;;;;7.75;4.25;;;;;17.29;67.97;102216.06;5038912;28;45293;-71
2023/09/30 05:40:58;;;;;;;;;9.75;7.00;;;;;17.26;67.99;102214.38;5037260;28;45504;-70
2023/09/30 05:43:27;;;;;;;;;4.75;4.50;;;;;17.25;67.72;102215.31;5063150;28;45766;-70
2023/09/30 05:45:54;;;;;;;;;6.25;4.25;;;;;17.24;68.07;102216.25;5056018;28;45393;-70
2023/09/30 05:48:24;;;;;;;;;5.50;4.25;;;;;16.93;67.74;102176.03;5038895;28;45360;-70
2023/09/30 05:50:50;;;;;;;;;5.25;5.00;;;;;17.06;68.12;102198.94;5038602;28;45488;-70
2023/09/30 05:53:16;;;;;;;;;7.50;4.50;;;;;16.96;67.87;102186.72;5043702;28;45390;-70
2023/09/30 05:55:42;;;;;;;;;8.00;7.00;;;;;16.95;67.99;102168.75;5072466;28;45457;-70
2023/09/30 05:58:17;;;;;;;;;5.00;5.00;;;;;16.92;68.23;102167.03;5057017;28;45441;-70
2023/09/30 06:00:43;;;;;;;;;8.25;5.00;;;;;17.06;68.14;102182.75;5057371;28;45440;-70
2023/09/30 06:03:10;;;;;;;;;4.50;3.00;;;;;16.96;68.37;102165.13;5049630;28;45596;-70
2023/09/30 06:05:41;;;;;;;;;8.00;5.25;;;;;16.94;68.50;102165.19;5062087;28;45642;-70
2023/09/30 06:08:10;;;;;;;;;6.25;5.00;;;;;16.82;68.58;102142.22;5051149;28;45558;-70
2023/09/30 06:10:37;;;;;;;;;9.50;5.00;;;;;17.12;68.78;102193.28;5060080;28;45881;-70
2023/09/30 06:13:08;;;;;;;;;7.50;4.00;;;;;17.05;68.82;102186.38;5052862;28;46180;-70
2023/09/30 06:15:39;;;;;;;;;7.00;5.75;;;;;17.07;69.03;102197.09;5054523;28;45480;-70
2023/09/30 06:18:06;;;;;;;;;4.25;4.25;;;;;16.77;68.99;102144.19;5048366;28;45446;-70
2023/09/30 06:20:31;;;;;;;;;9.25;6.50;;;;;17.04;69.18;102187.31;5051390;28;45435;-70
2023/09/30 06:22:57;;;;;;;;;6.25;6.25;;;;;16.95;69.00;102180.41;5038240;28;46594;-70
2023/09/30 06:25:27;;;;;;;;;7.50;5.75;;;;;16.87;69.12;102173.53;5036462;28;46568;-70
2023/09/30 06:27:57;;;;;;;;;4.50;4.50;;;;;16.73;68.84;102172.19;5049176;28;45573;-71
2023/09/30 06:30:29;;;;;;;;;5.50;5.00;;;;;16.88;68.91;102192.38;5052247;28;46372;-70
2023/09/30 06:32:55;;;;;;;;;7.00;4.00;;;;;16.91;69.25;102175.22;5037987;28;47574;-70
2023/09/30 06:35:21;;;;;;;;;5.00;5.00;;;;;16.87;68.91;102174.41;5037782;28;45564;-70
2023/09/30 06:37:47;;;;;;;;;6.50;5.00;;;;;16.99;69.15;102209.06;5044115;28;45523;-70
2023/09/30 06:40:13;;;;;;;;;10.75;7.50;;;;;16.88;69.35;102204.97;5036550;28;45938;-70
2023/09/30 06:42:43;;;;;;;;;6.00;4.75;;;;;17.00;69.06;102212.63;5040726;28;46369;-70
2023/09/30 06:45:12;;;;;;;;;4.50;3.00;;;;;17.09;69.12;102235.69;5053570;28;45473;-70
2023/09/30 06:47:42;;;;;;;;;6.00;5.75;;;;;16.93;69.18;102216.50;5042973;28;45465;-70
2023/09/30 06:50:12;;;;;;;;;7.50;4.00;;;;;16.84;69.13;102193.41;5040093;28;45588;-70
2023/09/30 06:52:42;;;;;;;;;5.50;4.25;;;;;16.88;69.22;102208.56;5041106;28;45503;-70
2023/09/30 06:55:16;;;;;;;;;8.75;5.25;;;;;16.83;69.32;102203.28;5049027;28;45637;-70
2023/09/30 06:57:45;;;;;;;;;6.00;4.25;;;;;16.96;69.16;102230.75;5051322;28;45300;-70
2023/09/30 07:00:20;;;;;;;;;6.50;5.50;;;;;16.76;69.07;102204.44;5044147;28;45681;-70
2023/09/30 07:02:46;;;;;;;;;5.75;4.25;;;;;16.75;69.01;102199.09;5053837;28;47200;-70
2023/09/30 07:05:12;;;;;;;;;7.00;6.25;;;;;16.73;69.67;102199.16;5056557;28;45361;-70
2023/09/30 07:07:39;;;;;;;;;11.25;10.00;;;;;16.89;69.31;102213.03;5054569;28;45381;-70
2023/09/30 07:10:08;;;;;;;;;10.75;9.75;;;;;16.81;69.89;102188.97;5051517;28;46020;-70
2023/09/30 07:12:35;;;;;;;;;8.50;6.50;;;;;17.00;69.68;102224.28;5055160;28;46511;-70
2023/09/30 07:15:05;;;;;;;;;10.00;7.00;;;;;16.94;70.20;102202.03;5068418;28;45467;-70
2023/09/30 07:17:30;;;;;;;;;7.25;6.00;;;;;17.09;70.19;102235.69;5050915;28;45337;-70
2023/09/30 07:19:56;;;;;;;;;6.00;4.50;;;;;17.13;70.01;102230.13;5060736;28;45233;-70
2023/09/30 07:22:22;;;;;;;;;6.75;4.00;;;;;16.96;69.46;102202.91;5041032;28;45414;-70
2023/09/30 07:24:47;;;;;;;;;4.50;4.50;;;;;17.08;69.22;102212.38;5040572;28;45331;-70
2023/09/30 09:37:04;;;;;;;;;6.50;6.25;;;;;18.00;68.24;102203.47;5649125;23;45915;-66
2023/09/30 09:39:33;;;;;;;;;6.75;5.00;;;;;18.04;67.80;102217.72;4910152;28;45373;-67
2023/09/30 09:42:01;;;;;;;;;6.75;6.25;;;;;18.04;68.07;102209.59;4921240;28;45290;-67
2023/09/30 09:44:26;;;;;;;;;6.50;4.50;;;;;18.47;67.77;102281.72;4895571;29;45673;-67
2023/09/30 09:46:52;;;;;;;;;11.00;7.25;;;;;18.32;67.97;102252.59;4904115;28;45823;-68
2023/09/30 09:49:18;;;;;;;;;10.00;6.00;;;;;18.27;68.49;102246.50;4902150;29;45343;-65
2023/09/30 09:51:46;;;;;;;;;10.25;7.00;;;;;18.42;68.26;102264.81;4902285;29;45332;-65
2023/09/30 09:54:12;;;;;;;;;7.00;7.00;;;;;18.36;68.04;102262.38;4907757;28;45302;-65
2023/09/30 09:56:39;;;;;;;;;8.75;5.75;;;;;18.37;68.44;102252.44;4912654;28;46172;-64
2023/09/30 09:59:08;;;;;;;;;7.75;6.25;;;;;18.43;68.40;102258.47;4902604;28;45708;-65
2023/09/30 10:01:39;;;;;;;;;6.50;3.00;;;;;18.49;68.37;102263.63;4914354;28;45515;-65
2023/09/30 10:04:05;;;;;;;;;7.25;6.25;;;;;18.47;68.06;102254.66;4907404;28;45480;-65
2023/09/30 10:06:38;;;;;;;;;9.75;5.50;;;;;18.52;68.19;102252.66;4909273;28;46192;-65
2023/09/30 10:09:11;;;;;;;;;10.25;6.25;;;;;18.51;68.38;102236.53;4906605;28;45287;-68
2023/09/30 10:11:42;;;;;;;;;6.00;6.00;;;;;18.55;68.26;102218.34;4904853;28;45720;-66
2023/09/30 10:14:14;;;;;;;;;6.75;5.75;;;;;18.77;68.41;102239.94;4908364;28;45433;-69
2023/09/30 10:16:45;;;;;;;;;7.50;6.75;;;;;18.84;68.31;102233.34;4912247;28;47326;-70
2023/09/30 10:19:11;;;;;;;;;8.75;6.75;;;;;18.69;68.23;102205.09;4910650;28;45655;-67
2023/09/30 10:21:37;;;;;;;;;3.75;3.25;;;;;18.85;68.36;102224.28;4896793;28;45484;-67
2023/09/30 10:24:24;;;;;;;;;7.75;6.00;;;;;18.99;68.07;102245.31;4894548;29;45518;-67
2023/09/30 10:27:24;;;;;;;;;7.00;7.00;;;;;19.01;67.24;102246.13;4917660;28;45403;-67
2023/09/30 10:30:01;;;;;;;;;6.75;6.00;;;;;19.06;67.92;102244.09;4909700;28;45606;-68
2023/09/30 10:33:06;;;;;;;;;11.50;11.25;;;;;18.86;66.99;102209.78;4901328;28;45416;-67
2023/09/30 10:35:31;;;;;;;;;9.50;9.50;;;;;19.11;67.38;102239.38;4819270;29;45554;-68
2023/09/30 10:38:21;;;;;;;;;7.75;7.75;;;;;19.16;67.12;102229.22;4824161;29;45625;-68
2023/09/30 10:40:46;;;;;;;;;10.25;7.25;;;;;19.00;67.72;102192.97;4865042;28;45709;-67
2023/09/30 10:43:31;;;;;;;;;9.00;7.50;;;;;19.26;66.83;102224.25;4922811;28;45397;-67
2023/09/30 10:45:58;;;;;;;;;11.00;9.00;;;;;19.07;66.50;102181.78;4902507;28;45620;-67
2023/09/30 10:48:32;;;;;;;;;10.25;7.50;;;;;19.34;66.84;102222.06;4914367;28;45401;-67
2023/09/30 10:51:00;;;;;;;;;7.25;7.25;;;;;19.24;66.72;102197.28;4920364;28;45477;-67
2023/09/30 10:53:30;;;;;;;;;9.00;8.00;;;;;19.24;66.30;102193.66;4910625;28;45432;-67
2023/09/30 10:56:00;;;;;;;;;8.75;7.50;;;;;19.48;66.01;102231.38;4911733;28;45478;-67
2023/09/30 10:58:42;;;;;;;;;6.50;6.25;;;;;19.46;65.62;102212.50;4919649;28;45490;-67
2023/09/30 11:01:08;;;;;;;;;10.00;6.00;;;;;19.44;65.68;102199.06;4908484;28;45702;-67
2023/09/30 11:03:33;;;;;;;;;9.75;9.75;;;;;19.33;65.06;102176.13;4906801;28;45545;-67
2023/09/30 11:05:59;;;;;;;;;6.50;6.00;;;;;19.63;64.79;102223.44;4891850;28;45444;-67
2023/09/30 11:08:29;;;;;;;;;8.25;6.25;;;;;19.47;64.66;102175.50;4887459;29;48096;-67
2023/09/30 11:10:56;;;;;;;;;9.50;9.00;;;;;19.69;64.70;102203.28;4920679;28;45517;-67
2023/09/30 11:13:22;;;;;;;;;9.25;7.50;;;;;19.62;64.73;102175.63;4883412;29;45736;-67
2023/09/30 11:15:47;;;;;;;;;7.25;6.00;;;;;19.75;65.01;102183.22;4920547;28;45545;-67
2023/09/30 11:18:18;;;;;;;;;11.75;9.00;;;;;19.56;64.52;102145.25;4922259;28;46640;-68
2023/09/30 11:20:47;;;;;;;;;6.50;6.00;;;;;19.76;65.41;102163.28;4910985;28;45353;-67
2023/09/30 11:23:16;;;;;;;;;9.00;6.75;;;;;19.93;64.44;102178.69;4918565;28;45520;-66
2023/09/30 11:26:01;;;;;;;;;6.75;5.00;;;;;19.98;64.89;102192.94;4892473;28;45425;-66
2023/09/30 11:29:11;;;;;;;;;;;;;;;;;;;;;
2023/09/30 11:31:51;;;;;;;;;7.00;6.50;;;;;20.25;63.95;102204.22;4890580;28;72911;-66
2023/09/30 11:41:17;;;;;;;;;;;;;;;;;;;;;
2023/09/30 11:44:07;;;;;;;;;3.50;3.50;;;;;20.31;63.64;102170.50;4914084;28;72910;-65
2023/09/30 11:47:04;;;;;;;;;;;;;;;;;;;;;
2023/09/30 11:49:53;;;;;;;;;6.00;6.00;;;;;20.51;63.19;102189.38;4906053;28;71377;-66
2023/09/30 11:52:35;;;;;;;;;8.25;5.50;;;;;20.25;62.69;102128.31;4903753;29;46247;-66
2023/09/30 11:55:12;;;;;;;;;5.75;5.75;;;;;20.44;62.64;102152.66;4922133;28;45352;-66
2023/09/30 11:57:42;;;;;;;;;6.00;5.00;;;;;20.52;62.91;102157.69;4902968;28;45464;-68
2023/09/30 12:14:10;;;;;;;;;;;;;;;;;;;;;
2023/09/30 12:21:02;;;;;;;;;;;;;;;;;;;;;
2023/09/30 12:30:36;;;;;;;;;;;;;;;;;;;;;
2023/09/30 12:33:02;;;;;;;;;7.00;7.00;;;;;20.76;61.14;102067.84;4917564;28;68817;-65
2023/09/30 12:35:33;;;;;;;;;6.25;5.00;;;;;21.07;61.31;102110.47;4918490;28;45579;-66
2023/09/30 12:38:16;;;;;;;;;;;;;;;;;;;;;
2023/09/30 12:40:46;;;;;;;;;4.25;3.75;;;;;21.09;61.57;102112.13;4916533;28;71133;-65
2023/09/30 12:43:41;;;;;;;;;;;;;;;;;;;;;
2023/09/30 12:46:08;;;;;;;;;5.00;5.00;;;;;21.16;61.53;102115.38;4917200;28;72866;-66
2023/09/30 12:48:41;;;;;;;;;4.00;4.00;;;;;20.90;61.47;102068.84;4922082;28;46234;-66
2023/09/30 12:51:13;;;;;;;;;6.75;4.25;;;;;21.02;61.73;102090.84;4921211;28;45406;-66
2023/09/30 12:53:38;;;;;;;;;4.25;4.25;;;;;21.16;61.76;102109.09;4921513;28;45468;-66
2023/09/30 12:56:03;;;;;;;;;5.75;5.00;;;;;21.05;61.18;102068.97;4904168;28;46134;-66
2023/09/30 12:58:29;;;;;;;;;6.75;6.00;;;;;21.36;60.76;102105.25;4921681;28;46330;-65
2023/09/30 13:00:56;;;;;;;;;4.75;4.00;;;;;21.19;61.43;102065.47;4921778;28;45314;-65
2023/09/30 13:03:22;;;;;;;;;10.75;7.25;;;;;21.22;60.81;102068.88;4921755;28;45548;-65
2023/09/30 13:05:47;;;;;;;;;7.00;5.25;;;;;21.17;61.04;102053.81;4921723;28;45339;-65
2023/09/30 13:08:15;;;;;;;;;8.50;6.00;;;;;21.32;61.10;102065.63;4904306;28;47576;-65
2023/09/30 13:10:54;;;;;;;;;;;;;;;;;;;;;
2023/09/30 13:13:49;;;;;;;;;;;;;;;;;;;;;
2023/09/30 13:16:15;;;;;;;;;4.75;4.75;;;;;21.41;60.84;102057.84;4919083;28;71182;-67
2023/09/30 13:18:40;;;;;;;;;5.25;4.50;;;;;21.38;61.83;102049.00;4921046;28;46175;-68
2023/09/30 13:21:06;;;;;;;;;9.00;6.50;;;;;21.55;61.47;102075.22;4902172;28;45421;-68
2023/09/30 13:23:32;;;;;;;;;6.00;6.00;;;;;21.63;61.18;102084.69;4920927;28;45711;-68
2023/09/30 13:25:57;;;;;;;;;5.75;4.50;;;;;21.51;60.76;102063.66;4903820;28;45938;-68
2023/09/30 13:28:23;;;;;;;;;9.00;7.50;;;;;21.45;60.90;102048.56;4921114;28;45451;-68
2023/09/30 13:30:48;;;;;;;;;6.00;6.00;;;;;21.70;60.47;102085.22;4892705;28;45521;-68
2023/09/30 13:33:13;;;;;;;;;8.75;6.50;;;;;21.49;60.69;102043.84;4904236;28;45399;-68
2023/09/30 13:35:39;;;;;;;;;3.75;3.75;;;;;21.57;60.89;102054.28;4921069;28;45267;-68
2023/09/30 13:38:04;;;;;;;;;6.75;5.00;;;;;21.54;61.20;102049.03;4921302;28;45434;-68
2023/09/30 13:40:30;;;;;;;;;6.00;4.25;;;;;21.72;61.08;102071.50;4911955;28;45337;-68
2023/09/30 13:42:57;;;;;;;;;4.00;4.00;;;;;21.50;60.33;102025.72;4921480;28;45481;-68
2023/09/30 13:45:22;;;;;;;;;8.00;5.25;;;;;21.77;60.43;102058.56;4920936;28;45538;-68
2023/09/30 13:47:48;;;;;;;;;7.75;7.00;;;;;21.66;60.67;102045.59;4921145;28;45476;-68
2023/09/30 13:50:13;;;;;;;;;7.50;6.25;;;;;21.75;60.82;102053.22;4902010;28;45780;-67
2023/09/30 13:52:39;;;;;;;;;7.00;5.00;;;;;21.65;61.14;102025.69;4920907;28;45501;-68
2023/09/30 13:55:04;;;;;;;;;6.00;5.25;;;;;21.88;61.50;102057.91;4920594;28;45608;-68
2023/09/30 13:57:30;;;;;;;;;5.75;5.50;;;;;21.83;61.05;102045.50;4922428;28;45545;-68
2023/09/30 13:59:56;;;;;;;;;5.00;4.00;;;;;21.77;61.03;102031.38;4916747;28;45526;-68
2023/09/30 14:02:22;;;;;;;;;6.25;5.00;;;;;21.90;60.42;102050.53;4903742;28;45278;-68
2023/09/30 14:04:48;;;;;;;;;6.50;5.00;;;;;21.71;60.58;102020.88;4922899;28;45605;-68
2023/09/30 14:07:13;;;;;;;;;9.00;5.50;;;;;21.84;60.76;102033.63;4924193;28;45493;-68
2023/09/30 14:09:38;;;;;;;;;3.75;3.75;;;;;21.92;61.06;102038.63;4922143;28;45405;-68
2023/09/30 14:12:04;;;;;;;;;6.00;4.50;;;;;21.79;60.75;102015.84;4890918;28;45383;-68
2023/09/30 14:14:34;;;;;;;;;4.75;4.75;;;;;21.78;60.24;102004.09;4923201;28;45303;-68
2023/09/30 14:16:59;;;;;;;;;7.25;4.50;;;;;21.84;60.79;102016.44;4922216;28;45802;-68
2023/09/30 14:19:24;;;;;;;;;3.50;3.50;;;;;21.88;60.36;102011.69;4924215;28;45582;-68
2023/09/30 14:21:50;;;;;;;;;5.00;5.00;;;;;22.01;60.52;102021.75;4906754;28;45429;-68
2023/09/30 14:24:15;;;;;;;;;5.25;5.25;;;;;22.02;60.24;102014.47;4923718;28;45435;-68
2023/09/30 14:26:41;;;;;;;;;7.00;6.25;;;;;21.97;60.33;102009.31;4915297;28;46127;-68